sensor_id;sensor_type;location;lat;lon;timestamp;temperature;humidity
5459;DHT22;2752;49.992;8.422;2022-10-22T00:00:22;15.50;86.90
5459;DHT22;2752;49.992;8.422;2022-10-22T00:02:49;15.50;87.40
5459;DHT22;2752;49.992;8.422;2022-10-22T00:05:16;15.40;88.10
5459;DHT22;2752;49.992;8.422;2022-10-22T00:07:43;15.40;87.90
5459;DHT22;2752;49.992;8.422;2022-10-22T00:10:11;15.40;88.40
5459;DHT22;2752;49.992;8.422;2022-10-22T00:12:38;15.40;88.30
5459;DHT22;2752;49.992;8.422;2022-10-22T00:15:06;15.40;89.00
5459;DHT22;2752;49.992;8.422;2022-10-22T00:17:32;15.40;89.30
5459;DHT22;2752;49.992;8.422;2022-10-22T00:20:00;15.30;90.00
5459;DHT22;2752;49.992;8.422;2022-10-22T00:22:27;15.40;90.70
5459;DHT22;2752;49.992;8.422;2022-10-22T00:24:53;15.40;91.40
5459;DHT22;2752;49.992;8.422;2022-10-22T00:27:21;15.40;90.70
5459;DHT22;2752;49.992;8.422;2022-10-22T00:29:48;15.40;90.50
5459;DHT22;2752;49.992;8.422;2022-10-22T00:32:15;15.30;90.90
5459;DHT22;2752;49.992;8.422;2022-10-22T00:34:42;15.30;90.70
5459;DHT22;2752;49.992;8.422;2022-10-22T00:37:08;15.30;91.40
5459;DHT22;2752;49.992;8.422;2022-10-22T00:39:35;15.30;91.50
5459;DHT22;2752;49.992;8.422;2022-10-22T00:42:02;15.30;92.50
5459;DHT22;2752;49.992;8.422;2022-10-22T00:45:00;15.30;91.90
5459;DHT22;2752;49.992;8.422;2022-10-22T00:47:31;15.30;91.80
5459;DHT22;2752;49.992;8.422;2022-10-22T00:49:59;15.30;92.30
5459;DHT22;2752;49.992;8.422;2022-10-22T00:52:27;15.30;91.80
5459;DHT22;2752;49.992;8.422;2022-10-22T00:54:53;15.40;91.30
5459;DHT22;2752;49.992;8.422;2022-10-22T00:57:21;15.40;90.30
5459;DHT22;2752;49.992;8.422;2022-10-22T00:59:48;15.40;90.20
5459;DHT22;2752;49.992;8.422;2022-10-22T01:02:17;15.40;90.50
5459;DHT22;2752;49.992;8.422;2022-10-22T01:04:44;15.30;91.20
5459;DHT22;2752;49.992;8.422;2022-10-22T01:07:15;15.40;91.50
5459;DHT22;2752;49.992;8.422;2022-10-22T01:09:49;15.30;92.10
5459;DHT22;2752;49.992;8.422;2022-10-22T01:12:22;15.30;91.80
5459;DHT22;2752;49.992;8.422;2022-10-22T01:15:02;15.40;92.00
5459;DHT22;2752;49.992;8.422;2022-10-22T01:17:39;15.20;92.00
5459;DHT22;2752;49.992;8.422;2022-10-22T01:20:18;15.20;91.80
5459;DHT22;2752;49.992;8.422;2022-10-22T01:22:56;15.30;92.20
5459;DHT22;2752;49.992;8.422;2022-10-22T01:25:29;15.20;92.60
5459;DHT22;2752;49.992;8.422;2022-10-22T01:28:04;15.30;92.70
5459;DHT22;2752;49.992;8.422;2022-10-22T01:30:36;15.30;92.40
5459;DHT22;2752;49.992;8.422;2022-10-22T01:33:06;15.30;91.30
5459;DHT22;2752;49.992;8.422;2022-10-22T01:35:36;15.30;91.20
5459;DHT22;2752;49.992;8.422;2022-10-22T01:38:08;15.30;91.40
5459;DHT22;2752;49.992;8.422;2022-10-22T01:40:35;15.30;91.60
5459;DHT22;2752;49.992;8.422;2022-10-22T01:43:04;15.30;91.70
5459;DHT22;2752;49.992;8.422;2022-10-22T01:45:35;15.30;91.30
5459;DHT22;2752;49.992;8.422;2022-10-22T01:48:13;15.30;91.80
5459;DHT22;2752;49.992;8.422;2022-10-22T01:51:17;15.20;92.10
5459;DHT22;2752;49.992;8.422;2022-10-22T01:53:51;15.20;92.90
5459;DHT22;2752;49.992;8.422;2022-10-22T01:56:29;15.20;93.20
5459;DHT22;2752;49.992;8.422;2022-10-22T01:59:03;15.20;93.60
5459;DHT22;2752;49.992;8.422;2022-10-22T02:01:37;15.20;93.40
5459;DHT22;2752;49.992;8.422;2022-10-22T02:04:10;15.20;93.20
5459;DHT22;2752;49.992;8.422;2022-10-22T02:06:40;15.20;93.00
5459;DHT22;2752;49.992;8.422;2022-10-22T02:09:09;15.30;93.60
5459;DHT22;2752;49.992;8.422;2022-10-22T02:11:37;15.30;92.30
5459;DHT22;2752;49.992;8.422;2022-10-22T02:14:04;15.30;92.10
5459;DHT22;2752;49.992;8.422;2022-10-22T02:16:36;15.30;91.10
5459;DHT22;2752;49.992;8.422;2022-10-22T02:19:09;15.20;91.50
5459;DHT22;2752;49.992;8.422;2022-10-22T02:21:37;15.30;92.20
5459;DHT22;2752;49.992;8.422;2022-10-22T02:24:04;15.30;91.00
5459;DHT22;2752;49.992;8.422;2022-10-22T02:26:33;15.20;90.50
5459;DHT22;2752;49.992;8.422;2022-10-22T02:29:05;15.20;90.90
5459;DHT22;2752;49.992;8.422;2022-10-22T02:31:37;15.20;91.40
5459;DHT22;2752;49.992;8.422;2022-10-22T02:34:08;15.20;91.80
5459;DHT22;2752;49.992;8.422;2022-10-22T02:36:37;15.20;91.00
5459;DHT22;2752;49.992;8.422;2022-10-22T02:39:05;15.20;90.70
5459;DHT22;2752;49.992;8.422;2022-10-22T02:41:33;15.10;90.90
5459;DHT22;2752;49.992;8.422;2022-10-22T02:44:00;15.10;91.20
5459;DHT22;2752;49.992;8.422;2022-10-22T02:46:27;15.20;90.90
5459;DHT22;2752;49.992;8.422;2022-10-22T02:48:55;15.10;91.00
5459;DHT22;2752;49.992;8.422;2022-10-22T02:51:22;15.00;90.60
5459;DHT22;2752;49.992;8.422;2022-10-22T02:53:49;15.10;90.70
5459;DHT22;2752;49.992;8.422;2022-10-22T02:56:15;15.10;90.80
5459;DHT22;2752;49.992;8.422;2022-10-22T02:58:42;15.10;91.00
5459;DHT22;2752;49.992;8.422;2022-10-22T03:01:09;15.10;90.90
5459;DHT22;2752;49.992;8.422;2022-10-22T03:03:35;15.00;90.90
5459;DHT22;2752;49.992;8.422;2022-10-22T03:06:04;15.00;91.40
5459;DHT22;2752;49.992;8.422;2022-10-22T03:08:30;15.10;91.60
5459;DHT22;2752;49.992;8.422;2022-10-22T03:10:57;15.10;91.10
5459;DHT22;2752;49.992;8.422;2022-10-22T03:13:24;15.10;90.40
5459;DHT22;2752;49.992;8.422;2022-10-22T03:15:51;15.10;90.20
5459;DHT22;2752;49.992;8.422;2022-10-22T03:18:18;15.20;89.20
5459;DHT22;2752;49.992;8.422;2022-10-22T03:20:44;15.20;86.90
5459;DHT22;2752;49.992;8.422;2022-10-22T03:23:14;15.20;86.20
5459;DHT22;2752;49.992;8.422;2022-10-22T03:25:42;15.10;85.90
5459;DHT22;2752;49.992;8.422;2022-10-22T03:28:12;15.10;86.80
5459;DHT22;2752;49.992;8.422;2022-10-22T03:30:40;15.00;87.10
5459;DHT22;2752;49.992;8.422;2022-10-22T03:33:07;15.00;87.30
5459;DHT22;2752;49.992;8.422;2022-10-22T03:35:39;14.90;87.60
5459;DHT22;2752;49.992;8.422;2022-10-22T03:38:09;14.90;88.10
5459;DHT22;2752;49.992;8.422;2022-10-22T03:40:37;14.90;88.20
5459;DHT22;2752;49.992;8.422;2022-10-22T03:43:04;15.00;87.90
5459;DHT22;2752;49.992;8.422;2022-10-22T03:45:31;14.90;88.40
5459;DHT22;2752;49.992;8.422;2022-10-22T03:47:57;15.00;87.40
5459;DHT22;2752;49.992;8.422;2022-10-22T03:50:24;14.90;87.10
5459;DHT22;2752;49.992;8.422;2022-10-22T03:52:51;14.90;87.10
5459;DHT22;2752;49.992;8.422;2022-10-22T03:55:18;14.80;87.20
5459;DHT22;2752;49.992;8.422;2022-10-22T03:57:46;14.80;87.20
5459;DHT22;2752;49.992;8.422;2022-10-22T04:00:13;14.80;87.20
5459;DHT22;2752;49.992;8.422;2022-10-22T04:02:39;14.80;87.00
5459;DHT22;2752;49.992;8.422;2022-10-22T04:05:07;15.00;85.40
5459;DHT22;2752;49.992;8.422;2022-10-22T04:07:33;15.00;81.60
5459;DHT22;2752;49.992;8.422;2022-10-22T04:10:00;14.90;82.60
5459;DHT22;2752;49.992;8.422;2022-10-22T04:12:27;14.90;82.80
5459;DHT22;2752;49.992;8.422;2022-10-22T04:14:55;14.80;83.90
5459;DHT22;2752;49.992;8.422;2022-10-22T04:17:21;14.80;84.40
5459;DHT22;2752;49.992;8.422;2022-10-22T04:19:48;14.80;84.30
5459;DHT22;2752;49.992;8.422;2022-10-22T04:22:15;14.90;84.30
5459;DHT22;2752;49.992;8.422;2022-10-22T04:24:41;14.90;84.40
5459;DHT22;2752;49.992;8.422;2022-10-22T04:27:08;14.90;82.80
5459;DHT22;2752;49.992;8.422;2022-10-22T04:29:35;14.80;82.70
5459;DHT22;2752;49.992;8.422;2022-10-22T04:32:03;14.80;83.30
5459;DHT22;2752;49.992;8.422;2022-10-22T04:34:29;14.80;84.00
5459;DHT22;2752;49.992;8.422;2022-10-22T04:36:57;14.80;82.50
5459;DHT22;2752;49.992;8.422;2022-10-22T04:39:23;14.80;82.40
5459;DHT22;2752;49.992;8.422;2022-10-22T04:41:51;14.80;82.60
5459;DHT22;2752;49.992;8.422;2022-10-22T04:44:17;14.80;82.30
5459;DHT22;2752;49.992;8.422;2022-10-22T04:46:44;14.80;82.30
5459;DHT22;2752;49.992;8.422;2022-10-22T04:49:12;14.80;82.20
5459;DHT22;2752;49.992;8.422;2022-10-22T04:51:39;14.80;83.00
5459;DHT22;2752;49.992;8.422;2022-10-22T04:54:05;14.80;82.40
5459;DHT22;2752;49.992;8.422;2022-10-22T04:56:32;14.80;82.20
5459;DHT22;2752;49.992;8.422;2022-10-22T04:59:00;14.80;82.40
5459;DHT22;2752;49.992;8.422;2022-10-22T05:01:29;14.80;82.10
5459;DHT22;2752;49.992;8.422;2022-10-22T05:03:58;14.90;81.60
5459;DHT22;2752;49.992;8.422;2022-10-22T05:06:28;14.80;80.60
5459;DHT22;2752;49.992;8.422;2022-10-22T05:08:57;14.80;81.60
5459;DHT22;2752;49.992;8.422;2022-10-22T05:11:27;14.80;81.30
5459;DHT22;2752;49.992;8.422;2022-10-22T05:13:55;14.90;82.50
5459;DHT22;2752;49.992;8.422;2022-10-22T05:16:22;14.90;80.70
5459;DHT22;2752;49.992;8.422;2022-10-22T05:18:49;14.90;81.10
5459;DHT22;2752;49.992;8.422;2022-10-22T05:21:18;14.90;80.00
5459;DHT22;2752;49.992;8.422;2022-10-22T05:23:48;14.80;80.90
5459;DHT22;2752;49.992;8.422;2022-10-22T05:26:18;14.80;81.60
5459;DHT22;2752;49.992;8.422;2022-10-22T05:28:45;14.80;82.10
5459;DHT22;2752;49.992;8.422;2022-10-22T05:31:13;14.80;81.60
5459;DHT22;2752;49.992;8.422;2022-10-22T05:33:40;14.80;82.60
5459;DHT22;2752;49.992;8.422;2022-10-22T05:36:09;14.90;81.10
5459;DHT22;2752;49.992;8.422;2022-10-22T05:38:37;14.90;79.00
5459;DHT22;2752;49.992;8.422;2022-10-22T05:41:07;14.90;79.00
5459;DHT22;2752;49.992;8.422;2022-10-22T05:43:35;14.90;79.00
5459;DHT22;2752;49.992;8.422;2022-10-22T05:46:03;14.90;79.60
5459;DHT22;2752;49.992;8.422;2022-10-22T05:48:30;14.90;80.20
5459;DHT22;2752;49.992;8.422;2022-10-22T05:50:59;14.90;80.40
5459;DHT22;2752;49.992;8.422;2022-10-22T05:53:29;14.80;80.10
5459;DHT22;2752;49.992;8.422;2022-10-22T05:55:59;14.80;80.80
5459;DHT22;2752;49.992;8.422;2022-10-22T05:58:27;14.90;81.90
5459;DHT22;2752;49.992;8.422;2022-10-22T06:00:54;14.80;80.60
5459;DHT22;2752;49.992;8.422;2022-10-22T06:03:20;14.80;80.00
5459;DHT22;2752;49.992;8.422;2022-10-22T06:05:47;14.70;79.90
5459;DHT22;2752;49.992;8.422;2022-10-22T06:08:13;14.70;80.10
5459;DHT22;2752;49.992;8.422;2022-10-22T06:10:41;14.80;80.70
5459;DHT22;2752;49.992;8.422;2022-10-22T06:13:08;14.70;78.80
5459;DHT22;2752;49.992;8.422;2022-10-22T06:15:36;14.60;78.70
5459;DHT22;2752;49.992;8.422;2022-10-22T06:18:03;14.60;80.40
5459;DHT22;2752;49.992;8.422;2022-10-22T06:20:30;14.50;80.30
5459;DHT22;2752;49.992;8.422;2022-10-22T06:22:59;14.40;81.60
5459;DHT22;2752;49.992;8.422;2022-10-22T06:25:25;14.30;82.40
5459;DHT22;2752;49.992;8.422;2022-10-22T06:27:52;14.30;83.60
5459;DHT22;2752;49.992;8.422;2022-10-22T06:30:19;14.30;84.00
5459;DHT22;2752;49.992;8.422;2022-10-22T06:32:47;14.20;84.50
5459;DHT22;2752;49.992;8.422;2022-10-22T06:35:13;14.20;85.10
5459;DHT22;2752;49.992;8.422;2022-10-22T06:37:40;14.20;85.20
5459;DHT22;2752;49.992;8.422;2022-10-22T06:40:07;14.20;85.80
5459;DHT22;2752;49.992;8.422;2022-10-22T06:42:35;14.20;85.00
5459;DHT22;2752;49.992;8.422;2022-10-22T06:45:02;14.20;85.20
5459;DHT22;2752;49.992;8.422;2022-10-22T06:47:29;14.20;85.60
5459;DHT22;2752;49.992;8.422;2022-10-22T06:49:59;14.20;85.70
5459;DHT22;2752;49.992;8.422;2022-10-22T06:52:25;14.50;87.10
5459;DHT22;2752;49.992;8.422;2022-10-22T06:54:52;14.30;85.50
5459;DHT22;2752;49.992;8.422;2022-10-22T06:57:19;14.20;84.20
5459;DHT22;2752;49.992;8.422;2022-10-22T06:59:45;14.30;84.30
5459;DHT22;2752;49.992;8.422;2022-10-22T07:02:12;14.20;83.10
5459;DHT22;2752;49.992;8.422;2022-10-22T07:04:39;14.20;83.80
5459;DHT22;2752;49.992;8.422;2022-10-22T07:07:07;14.20;83.60
5459;DHT22;2752;49.992;8.422;2022-10-22T07:09:33;14.20;83.00
5459;DHT22;2752;49.992;8.422;2022-10-22T07:12:00;14.20;83.30
5459;DHT22;2752;49.992;8.422;2022-10-22T07:14:26;14.20;82.70
5459;DHT22;2752;49.992;8.422;2022-10-22T07:16:53;14.20;83.10
5459;DHT22;2752;49.992;8.422;2022-10-22T07:19:20;14.20;83.10
5459;DHT22;2752;49.992;8.422;2022-10-22T07:21:46;14.20;81.80
5459;DHT22;2752;49.992;8.422;2022-10-22T07:24:14;14.20;81.70
5459;DHT22;2752;49.992;8.422;2022-10-22T07:26:41;14.40;78.60
5459;DHT22;2752;49.992;8.422;2022-10-22T07:29:08;14.40;77.20
5459;DHT22;2752;49.992;8.422;2022-10-22T07:31:35;14.40;77.50
5459;DHT22;2752;49.992;8.422;2022-10-22T07:34:01;14.40;76.40
5459;DHT22;2752;49.992;8.422;2022-10-22T07:36:28;14.40;76.60
5459;DHT22;2752;49.992;8.422;2022-10-22T07:38:56;14.50;75.40
5459;DHT22;2752;49.992;8.422;2022-10-22T07:41:25;14.60;73.50
5459;DHT22;2752;49.992;8.422;2022-10-22T07:43:53;14.70;72.30
5459;DHT22;2752;49.992;8.422;2022-10-22T07:46:20;14.70;69.30
5459;DHT22;2752;49.992;8.422;2022-10-22T07:48:47;14.80;68.10
5459;DHT22;2752;49.992;8.422;2022-10-22T07:51:14;14.50;66.80
5459;DHT22;2752;49.992;8.422;2022-10-22T07:53:41;14.90;67.00
5459;DHT22;2752;49.992;8.422;2022-10-22T07:56:08;15.00;62.10
5459;DHT22;2752;49.992;8.422;2022-10-22T07:58:36;15.10;61.60
5459;DHT22;2752;49.992;8.422;2022-10-22T08:01:03;15.20;59.20
5459;DHT22;2752;49.992;8.422;2022-10-22T08:03:30;15.20;58.20
5459;DHT22;2752;49.992;8.422;2022-10-22T08:05:57;15.30;57.60
5459;DHT22;2752;49.992;8.422;2022-10-22T08:08:24;15.40;55.50
5459;DHT22;2752;49.992;8.422;2022-10-22T08:10:52;15.50;51.40
5459;DHT22;2752;49.992;8.422;2022-10-22T08:13:19;15.60;49.80
5459;DHT22;2752;49.992;8.422;2022-10-22T08:15:47;15.70;49.30
5459;DHT22;2752;49.992;8.422;2022-10-22T08:18:14;15.80;46.80
5459;DHT22;2752;49.992;8.422;2022-10-22T08:20:41;15.80;44.70
5459;DHT22;2752;49.992;8.422;2022-10-22T08:23:08;16.00;38.70
5459;DHT22;2752;49.992;8.422;2022-10-22T08:25:35;16.20;38.80
5459;DHT22;2752;49.992;8.422;2022-10-22T08:28:02;16.10;38.20
5459;DHT22;2752;49.992;8.422;2022-10-22T08:30:28;16.30;36.50
5459;DHT22;2752;49.992;8.422;2022-10-22T08:32:57;16.30;35.00
5459;DHT22;2752;49.992;8.422;2022-10-22T08:35:23;16.40;33.70
5459;DHT22;2752;49.992;8.422;2022-10-22T08:37:50;16.50;29.40
5459;DHT22;2752;49.992;8.422;2022-10-22T08:40:22;16.50;30.00
5459;DHT22;2752;49.992;8.422;2022-10-22T08:43:25;16.60;26.60
5459;DHT22;2752;49.992;8.422;2022-10-22T08:46:04;16.70;22.80
5459;DHT22;2752;49.992;8.422;2022-10-22T08:48:42;16.80;21.60
5459;DHT22;2752;49.992;8.422;2022-10-22T08:51:15;16.80;18.30
5459;DHT22;2752;49.992;8.422;2022-10-22T08:53:57;16.90;20.20
5459;DHT22;2752;49.992;8.422;2022-10-22T08:56:30;16.90;20.40
5459;DHT22;2752;49.992;8.422;2022-10-22T08:59:01;16.90;22.10
5459;DHT22;2752;49.992;8.422;2022-10-22T09:01:34;17.00;22.00
5459;DHT22;2752;49.992;8.422;2022-10-22T09:04:06;17.10;19.00
5459;DHT22;2752;49.992;8.422;2022-10-22T09:06:37;17.10;19.30
5459;DHT22;2752;49.992;8.422;2022-10-22T09:09:10;17.10;17.10
5459;DHT22;2752;49.992;8.422;2022-10-22T09:11:39;17.00;17.80
5459;DHT22;2752;49.992;8.422;2022-10-22T09:14:11;17.10;18.70
5459;DHT22;2752;49.992;8.422;2022-10-22T09:17:01;17.20;15.80
5459;DHT22;2752;49.992;8.422;2022-10-22T09:19:34;17.30;12.50
5459;DHT22;2752;49.992;8.422;2022-10-22T09:22:16;17.50;11.40
5459;DHT22;2752;49.992;8.422;2022-10-22T09:24:47;17.60;6.80
5459;DHT22;2752;49.992;8.422;2022-10-22T09:27:17;17.70;4.50
5459;DHT22;2752;49.992;8.422;2022-10-22T09:29:45;17.80;1.00
5459;DHT22;2752;49.992;8.422;2022-10-22T09:32:12;17.90;1.00
5459;DHT22;2752;49.992;8.422;2022-10-22T09:34:43;18.10;1.00
5459;DHT22;2752;49.992;8.422;2022-10-22T09:37:10;18.20;1.00
5459;DHT22;2752;49.992;8.422;2022-10-22T09:39:39;18.30;1.00
5459;DHT22;2752;49.992;8.422;2022-10-22T09:42:06;18.30;1.00
5459;DHT22;2752;49.992;8.422;2022-10-22T09:44:34;18.20;1.00
5459;DHT22;2752;49.992;8.422;2022-10-22T09:47:04;18.20;1.00
5459;DHT22;2752;49.992;8.422;2022-10-22T09:49:34;18.10;1.00
5459;DHT22;2752;49.992;8.422;2022-10-22T09:52:03;18.10;1.00
5459;DHT22;2752;49.992;8.422;2022-10-22T09:54:44;18.30;1.00
5459;DHT22;2752;49.992;8.422;2022-10-22T09:57:14;18.30;1.00
5459;DHT22;2752;49.992;8.422;2022-10-22T09:59:43;18.40;1.00
5459;DHT22;2752;49.992;8.422;2022-10-22T10:02:12;18.60;1.00
5459;DHT22;2752;49.992;8.422;2022-10-22T10:04:40;18.60;1.00
5459;DHT22;2752;49.992;8.422;2022-10-22T10:07:16;18.70;1.00
5459;DHT22;2752;49.992;8.422;2022-10-22T10:09:44;18.70;1.00
5459;DHT22;2752;49.992;8.422;2022-10-22T10:12:19;18.70;1.00
5459;DHT22;2752;49.992;8.422;2022-10-22T10:14:53;18.60;1.00
5459;DHT22;2752;49.992;8.422;2022-10-22T10:17:26;18.60;1.00
5459;DHT22;2752;49.992;8.422;2022-10-22T10:20:08;18.70;1.00
5459;DHT22;2752;49.992;8.422;2022-10-22T10:22:48;18.90;1.00
5459;DHT22;2752;49.992;8.422;2022-10-22T10:25:29;19.00;1.00
5459;DHT22;2752;49.992;8.422;2022-10-22T10:28:03;19.20;1.00
5459;DHT22;2752;49.992;8.422;2022-10-22T10:30:39;19.30;1.00
5459;DHT22;2752;49.992;8.422;2022-10-22T10:33:16;19.40;1.00
5459;DHT22;2752;49.992;8.422;2022-10-22T10:35:50;19.30;1.00
5459;DHT22;2752;49.992;8.422;2022-10-22T10:38:38;19.60;1.00
5459;DHT22;2752;49.992;8.422;2022-10-22T10:41:15;19.80;1.00
5459;DHT22;2752;49.992;8.422;2022-10-22T10:43:53;20.10;1.00
5459;DHT22;2752;49.992;8.422;2022-10-22T10:46:27;20.40;1.00
5459;DHT22;2752;49.992;8.422;2022-10-22T10:48:59;20.50;1.00
5459;DHT22;2752;49.992;8.422;2022-10-22T10:51:34;20.60;1.00
5459;DHT22;2752;49.992;8.422;2022-10-22T10:54:15;20.40;1.00
5459;DHT22;2752;49.992;8.422;2022-10-22T10:56:46;20.20;1.00
5459;DHT22;2752;49.992;8.422;2022-10-22T10:59:17;20.20;1.00
5459;DHT22;2752;49.992;8.422;2022-10-22T11:01:58;20.20;1.00
5459;DHT22;2752;49.992;8.422;2022-10-22T11:04:49;20.10;1.00
5459;DHT22;2752;49.992;8.422;2022-10-22T11:07:24;20.10;1.00
5459;DHT22;2752;49.992;8.422;2022-10-22T11:09:56;20.00;1.00
5459;DHT22;2752;49.992;8.422;2022-10-22T11:12:29;19.80;1.00
5459;DHT22;2752;49.992;8.422;2022-10-22T11:15:02;20.20;1.00
5459;DHT22;2752;49.992;8.422;2022-10-22T11:17:35;20.10;1.00
5459;DHT22;2752;49.992;8.422;2022-10-22T11:20:12;20.20;1.00
5459;DHT22;2752;49.992;8.422;2022-10-22T11:22:46;20.20;1.00
5459;DHT22;2752;49.992;8.422;2022-10-22T11:25:19;20.30;1.00
5459;DHT22;2752;49.992;8.422;2022-10-22T11:27:50;20.30;1.00
5459;DHT22;2752;49.992;8.422;2022-10-22T11:30:20;20.30;1.00
5459;DHT22;2752;49.992;8.422;2022-10-22T11:32:56;20.40;1.00
5459;DHT22;2752;49.992;8.422;2022-10-22T11:35:26;20.40;1.00
5459;DHT22;2752;49.992;8.422;2022-10-22T11:37:55;20.40;1.00
5459;DHT22;2752;49.992;8.422;2022-10-22T11:40:32;20.40;1.00
5459;DHT22;2752;49.992;8.422;2022-10-22T11:43:04;20.30;1.00
5459;DHT22;2752;49.992;8.422;2022-10-22T11:45:35;20.40;1.00
5459;DHT22;2752;49.992;8.422;2022-10-22T11:48:14;20.60;1.00
5459;DHT22;2752;49.992;8.422;2022-10-22T11:50:50;20.70;1.00
5459;DHT22;2752;49.992;8.422;2022-10-22T11:53:20;20.70;1.00
5459;DHT22;2752;49.992;8.422;2022-10-22T11:55:49;20.90;1.00
5459;DHT22;2752;49.992;8.422;2022-10-22T11:58:27;21.00;1.00
5459;DHT22;2752;49.992;8.422;2022-10-22T12:00:56;21.40;1.00
5459;DHT22;2752;49.992;8.422;2022-10-22T12:03:35;21.60;1.00
5459;DHT22;2752;49.992;8.422;2022-10-22T12:06:17;21.90;1.00
5459;DHT22;2752;49.992;8.422;2022-10-22T12:08:55;22.30;1.00
5459;DHT22;2752;49.992;8.422;2022-10-22T12:11:26;22.40;1.00
5459;DHT22;2752;49.992;8.422;2022-10-22T12:14:14;22.40;1.00
5459;DHT22;2752;49.992;8.422;2022-10-22T12:16:44;22.40;1.00
5459;DHT22;2752;49.992;8.422;2022-10-22T12:19:14;22.60;1.00
5459;DHT22;2752;49.992;8.422;2022-10-22T12:21:43;22.60;1.00
5459;DHT22;2752;49.992;8.422;2022-10-22T12:24:13;22.60;1.00
5459;DHT22;2752;49.992;8.422;2022-10-22T12:26:42;22.50;1.00
5459;DHT22;2752;49.992;8.422;2022-10-22T12:29:12;22.60;1.00
5459;DHT22;2752;49.992;8.422;2022-10-22T12:31:41;22.50;1.00
5459;DHT22;2752;49.992;8.422;2022-10-22T12:34:12;22.50;1.00
5459;DHT22;2752;49.992;8.422;2022-10-22T12:36:39;22.60;1.00
5459;DHT22;2752;49.992;8.422;2022-10-22T12:39:11;22.60;1.00
5459;DHT22;2752;49.992;8.422;2022-10-22T12:41:38;22.60;1.00
5459;DHT22;2752;49.992;8.422;2022-10-22T12:44:09;22.30;1.00
5459;DHT22;2752;49.992;8.422;2022-10-22T12:46:36;22.10;1.00
5459;DHT22;2752;49.992;8.422;2022-10-22T12:49:05;21.90;1.00
5459;DHT22;2752;49.992;8.422;2022-10-22T12:51:34;22.00;1.00
5459;DHT22;2752;49.992;8.422;2022-10-22T12:54:06;21.90;1.00
5459;DHT22;2752;49.992;8.422;2022-10-22T12:56:35;22.10;1.00
5459;DHT22;2752;49.992;8.422;2022-10-22T12:59:05;22.20;1.00
5459;DHT22;2752;49.992;8.422;2022-10-22T13:01:36;22.40;1.00
5459;DHT22;2752;49.992;8.422;2022-10-22T13:04:05;22.50;1.00
5459;DHT22;2752;49.992;8.422;2022-10-22T13:06:33;22.40;1.00
5459;DHT22;2752;49.992;8.422;2022-10-22T13:09:16;22.30;1.00
5459;DHT22;2752;49.992;8.422;2022-10-22T13:11:49;22.20;1.00
5459;DHT22;2752;49.992;8.422;2022-10-22T13:14:26;22.10;1.00
5459;DHT22;2752;49.992;8.422;2022-10-22T13:17:09;21.90;1.00
5459;DHT22;2752;49.992;8.422;2022-10-22T13:19:41;21.70;1.00
5459;DHT22;2752;49.992;8.422;2022-10-22T13:22:24;21.60;1.00
5459;DHT22;2752;49.992;8.422;2022-10-22T13:24:51;21.50;1.00
5459;DHT22;2752;49.992;8.422;2022-10-22T13:27:20;21.40;1.00
5459;DHT22;2752;49.992;8.422;2022-10-22T13:29:49;21.40;1.00
5459;DHT22;2752;49.992;8.422;2022-10-22T13:32:26;21.50;1.00
5459;DHT22;2752;49.992;8.422;2022-10-22T13:34:55;21.50;1.00
5459;DHT22;2752;49.992;8.422;2022-10-22T13:37:23;21.50;1.00
5459;DHT22;2752;49.992;8.422;2022-10-22T13:39:50;21.40;1.00
5459;DHT22;2752;49.992;8.422;2022-10-22T13:42:16;21.30;1.00
5459;DHT22;2752;49.992;8.422;2022-10-22T13:44:43;21.30;1.00
5459;DHT22;2752;49.992;8.422;2022-10-22T13:47:22;21.30;1.00
5459;DHT22;2752;49.992;8.422;2022-10-22T13:49:50;21.30;1.00
5459;DHT22;2752;49.992;8.422;2022-10-22T13:52:37;21.30;1.00
5459;DHT22;2752;49.992;8.422;2022-10-22T13:55:13;21.30;1.00
5459;DHT22;2752;49.992;8.422;2022-10-22T13:57:41;21.40;1.00
5459;DHT22;2752;49.992;8.422;2022-10-22T14:00:11;21.70;1.00
5459;DHT22;2752;49.992;8.422;2022-10-22T14:02:39;21.90;1.00
5459;DHT22;2752;49.992;8.422;2022-10-22T14:05:07;21.90;1.00
5459;DHT22;2752;49.992;8.422;2022-10-22T14:07:36;21.80;1.00
5459;DHT22;2752;49.992;8.422;2022-10-22T14:10:05;21.70;1.00
5459;DHT22;2752;49.992;8.422;2022-10-22T14:12:32;21.50;1.00
5459;DHT22;2752;49.992;8.422;2022-10-22T14:14:58;21.30;1.00
5459;DHT22;2752;49.992;8.422;2022-10-22T14:17:25;21.30;1.00
5459;DHT22;2752;49.992;8.422;2022-10-22T14:19:54;21.10;1.00
5459;DHT22;2752;49.992;8.422;2022-10-22T14:22:22;21.00;1.00
5459;DHT22;2752;49.992;8.422;2022-10-22T14:24:51;21.00;1.00
5459;DHT22;2752;49.992;8.422;2022-10-22T14:27:18;20.80;1.00
5459;DHT22;2752;49.992;8.422;2022-10-22T14:29:45;20.80;1.00
5459;DHT22;2752;49.992;8.422;2022-10-22T14:32:13;20.70;1.00
5459;DHT22;2752;49.992;8.422;2022-10-22T14:34:40;20.80;1.00
5459;DHT22;2752;49.992;8.422;2022-10-22T14:37:14;20.80;1.00
5459;DHT22;2752;49.992;8.422;2022-10-22T14:39:42;20.70;1.00
5459;DHT22;2752;49.992;8.422;2022-10-22T14:42:11;20.70;1.00
5459;DHT22;2752;49.992;8.422;2022-10-22T14:44:38;20.70;1.00
5459;DHT22;2752;49.992;8.422;2022-10-22T14:47:05;20.70;1.00
5459;DHT22;2752;49.992;8.422;2022-10-22T14:49:32;20.60;1.00
5459;DHT22;2752;49.992;8.422;2022-10-22T14:51:58;20.60;1.00
5459;DHT22;2752;49.992;8.422;2022-10-22T14:54:26;20.80;1.00
5459;DHT22;2752;49.992;8.422;2022-10-22T14:56:53;21.00;1.00
5459;DHT22;2752;49.992;8.422;2022-10-22T14:59:20;21.10;1.00
5459;DHT22;2752;49.992;8.422;2022-10-22T15:01:46;21.20;1.00
5459;DHT22;2752;49.992;8.422;2022-10-22T15:04:13;21.20;1.00
5459;DHT22;2752;49.992;8.422;2022-10-22T15:06:40;21.20;1.00
5459;DHT22;2752;49.992;8.422;2022-10-22T15:09:06;21.30;1.00
5459;DHT22;2752;49.992;8.422;2022-10-22T15:11:34;21.20;1.00
5459;DHT22;2752;49.992;8.422;2022-10-22T15:14:01;21.20;1.00
5459;DHT22;2752;49.992;8.422;2022-10-22T15:16:28;21.10;1.00
5459;DHT22;2752;49.992;8.422;2022-10-22T15:18:54;21.00;1.00
5459;DHT22;2752;49.992;8.422;2022-10-22T15:21:22;20.90;1.00
5459;DHT22;2752;49.992;8.422;2022-10-22T15:23:48;20.80;1.00
5459;DHT22;2752;49.992;8.422;2022-10-22T15:26:16;20.70;1.00
5459;DHT22;2752;49.992;8.422;2022-10-22T15:28:44;20.70;1.00
5459;DHT22;2752;49.992;8.422;2022-10-22T15:31:12;20.60;1.00
5459;DHT22;2752;49.992;8.422;2022-10-22T15:33:40;20.60;1.00
5459;DHT22;2752;49.992;8.422;2022-10-22T15:36:11;20.50;1.00
5459;DHT22;2752;49.992;8.422;2022-10-22T15:38:38;20.40;1.00
5459;DHT22;2752;49.992;8.422;2022-10-22T15:41:07;20.40;1.00
5459;DHT22;2752;49.992;8.422;2022-10-22T15:43:35;20.30;1.00
5459;DHT22;2752;49.992;8.422;2022-10-22T15:46:11;20.30;1.00
5459;DHT22;2752;49.992;8.422;2022-10-22T15:48:38;20.30;1.00
5459;DHT22;2752;49.992;8.422;2022-10-22T15:51:10;20.10;1.00
5459;DHT22;2752;49.992;8.422;2022-10-22T15:53:37;20.00;1.00
5459;DHT22;2752;49.992;8.422;2022-10-22T15:56:05;19.80;1.00
5459;DHT22;2752;49.992;8.422;2022-10-22T15:58:31;19.70;1.00
5459;DHT22;2752;49.992;8.422;2022-10-22T16:01:05;19.50;1.00
5459;DHT22;2752;49.992;8.422;2022-10-22T16:03:33;19.40;1.00
5459;DHT22;2752;49.992;8.422;2022-10-22T16:06:01;19.30;1.00
5459;DHT22;2752;49.992;8.422;2022-10-22T16:08:28;19.20;1.00
5459;DHT22;2752;49.992;8.422;2022-10-22T16:10:55;19.00;1.00
5459;DHT22;2752;49.992;8.422;2022-10-22T16:13:23;18.90;1.00
5459;DHT22;2752;49.992;8.422;2022-10-22T16:15:51;18.70;1.00
5459;DHT22;2752;49.992;8.422;2022-10-22T16:18:18;18.60;1.00
5459;DHT22;2752;49.992;8.422;2022-10-22T16:20:47;18.50;1.00
5459;DHT22;2752;49.992;8.422;2022-10-22T16:23:13;18.40;1.00
5459;DHT22;2752;49.992;8.422;2022-10-22T16:25:43;18.30;1.00